Time;durP1;ratioP1;P1;durP2;ratioP2;P2;SDS_P1;SDS_P2;PMS_P1;PMS_P2;Temp;Humidity;BMP_temperature;BMP_pressure;BME280_temperature;BME280_humidity;BME280_pressure;Samples;Min_cycle;Max_cycle;Signal;HPM_P1;HPM_P2
2023/01/20 00:00:10;;;;;;;6.13;3.53;;;;;;;;;;5021921;28;20153;-75
2023/01/20 00:02:36;;;;;;;5.88;3.50;;;;;;;;;;5032484;28;20483;-75
2023/01/20 00:05:02;;;;;;;6.45;3.97;;;;;;;;;;5016269;28;20495;-75
2023/01/20 00:07:28;;;;;;;4.65;3.55;;;;;;;;;;5032974;28;20049;-75
2023/01/20 00:09:54;;;;;;;5.82;4.00;;;;;;;;;;5019529;28;20111;-75
2023/01/20 00:12:20;;;;;;;5.97;3.90;;;;;;;;;;5018896;28;20045;-75
2023/01/20 00:14:46;;;;;;;5.63;4.03;;;;;;;;;;5014769;28;20077;-75
2023/01/20 00:17:12;;;;;;;8.95;4.20;;;;;;;;;;5014317;28;20042;-75
2023/01/20 00:19:38;;;;;;;6.18;3.75;;;;;;;;;;5007960;28;20080;-75
2023/01/20 00:22:07;;;;;;;6.70;4.10;;;;;;;;;;5019259;28;20050;-75
2023/01/20 00:24:33;;;;;;;6.60;3.95;;;;;;;;;;5023584;28;20065;-74
2023/01/20 00:26:59;;;;;;;6.30;4.55;;;;;;;;;;5018508;28;20049;-75
2023/01/20 00:29:25;;;;;;;6.68;4.18;;;;;;;;;;5025660;28;20041;-75
2023/01/20 00:31:51;;;;;;;6.07;3.97;;;;;;;;;;5015904;28;20060;-75
2023/01/20 00:34:17;;;;;;;5.43;3.90;;;;;;;;;;5015803;28;20042;-75
2023/01/20 00:36:43;;;;;;;8.35;4.78;;;;;;;;;;5024274;28;20041;-75
2023/01/20 00:39:09;;;;;;;7.45;4.72;;;;;;;;;;5020400;28;20111;-75
2023/01/20 00:41:35;;;;;;;9.13;5.00;;;;;;;;;;5018195;28;20053;-75
2023/01/20 00:44:01;;;;;;;7.30;5.18;;;;;;;;;;5023441;28;20485;-75
2023/01/20 00:46:28;;;;;;;7.95;5.03;;;;;;;;;;5018603;28;20415;-75
2023/01/20 00:48:54;;;;;;;7.25;5.10;;;;;;;;;;5013380;28;20041;-75
2023/01/20 00:51:20;;;;;;;11.23;5.88;;;;;;;;;;5024303;28;20041;-75
2023/01/20 00:53:46;;;;;;;8.32;5.10;;;;;;;;;;5032936;28;20071;-75
2023/01/20 00:56:12;;;;;;;7.78;5.70;;;;;;;;;;5015361;28;20384;-75
2023/01/20 00:58:38;;;;;;;9.27;5.28;;;;;;;;;;5032970;28;20090;-75
2023/01/20 01:01:04;;;;;;;7.60;5.30;;;;;;;;;;5024557;28;20415;-75
2023/01/20 01:03:30;;;;;;;8.15;5.15;;;;;;;;;;5023157;28;20477;-75
2023/01/20 01:06:07;;;;;;;9.20;5.57;;;;;;;;;;5034740;28;20465;-75
2023/01/20 01:08:34;;;;;;;7.43;5.07;;;;;;;;;;5032743;28;20052;-75
2023/01/20 01:11:00;;;;;;;11.68;5.25;;;;;;;;;;5016778;28;20412;-75
2023/01/20 01:13:26;;;;;;;7.90;4.85;;;;;;;;;;5016499;28;20046;-75
2023/01/20 01:15:52;;;;;;;8.68;5.72;;;;;;;;;;5020733;28;20041;-75
2023/01/20 01:18:18;;;;;;;6.97;5.05;;;;;;;;;;5016192;28;20058;-75
2023/01/20 01:20:44;;;;;;;8.48;5.40;;;;;;;;;;5016089;28;20049;-75
2023/01/20 01:23:10;;;;;;;6.88;5.30;;;;;;;;;;5016706;28;20121;-75
2023/01/20 01:25:37;;;;;;;9.32;5.47;;;;;;;;;;5016022;28;20042;-75
2023/01/20 01:28:03;;;;;;;10.43;6.97;;;;;;;;;;5016383;28;20116;-75
2023/01/20 01:30:29;;;;;;;10.20;6.38;;;;;;;;;;5020682;28;20042;-75
2023/01/20 01:32:55;;;;;;;13.98;7.50;;;;;;;;;;5034969;28;20037;-75
2023/01/20 01:35:21;;;;;;;13.00;8.07;;;;;;;;;;5026597;28;20058;-75
2023/01/20 01:37:47;;;;;;;13.82;7.38;;;;;;;;;;5026527;28;20056;-75
2023/01/20 01:40:13;;;;;;;15.30;7.65;;;;;;;;;;5030803;28;20049;-75
2023/01/20 01:42:40;;;;;;;11.07;7.00;;;;;;;;;;5015631;28;20121;-75
2023/01/20 01:45:12;;;;;;;13.45;7.53;;;;;;;;;;5019610;28;20050;-75
2023/01/20 01:47:47;;;;;;;12.32;7.72;;;;;;;;;;5022231;28;20119;-75
2023/01/20 01:50:16;;;;;;;12.75;7.40;;;;;;;;;;5015407;28;20050;-75
2023/01/20 01:52:44;;;;;;;15.05;7.63;;;;;;;;;;5022765;28;20041;-75
2023/01/20 01:55:11;;;;;;;13.73;7.30;;;;;;;;;;5016679;28;20388;-75
2023/01/20 01:57:37;;;;;;;13.82;7.78;;;;;;;;;;5031044;28;20046;-75
2023/01/20 02:00:06;;;;;;;11.93;7.45;;;;;;;;;;5024043;28;20429;-75
2023/01/20 02:02:32;;;;;;;12.52;7.90;;;;;;;;;;5029477;28;20460;-75
2023/01/20 02:04:58;;;;;;;11.75;7.70;;;;;;;;;;5033433;28;20121;-75
2023/01/20 02:07:25;;;;;;;14.23;7.70;;;;;;;;;;5025529;28;20084;-75
2023/01/20 02:09:51;;;;;;;14.48;8.20;;;;;;;;;;5034904;28;20377;-75
2023/01/20 02:12:19;;;;;;;13.40;7.68;;;;;;;;;;5026590;28;20038;-75
2023/01/20 02:14:48;;;;;;;13.18;7.38;;;;;;;;;;5028395;28;20500;-75
2023/01/20 02:17:17;;;;;;;11.65;7.55;;;;;;;;;;5021894;28;20228;-75
2023/01/20 02:20:12;;;;;;;11.38;7.60;;;;;;;;;;5034545;28;20415;-75
2023/01/20 02:22:41;;;;;;;12.35;7.32;;;;;;;;;;4933487;29;20503;-75
2023/01/20 02:25:16;;;;;;;10.68;6.97;;;;;;;;;;4935435;29;20051;-75
2023/01/20 02:27:45;;;;;;;11.10;7.10;;;;;;;;;;4935136;29;20096;-75
2023/01/20 02:30:34;;;;;;;10.82;7.10;;;;;;;;;;4935206;29;20094;-75
2023/01/20 02:33:04;;;;;;;13.57;8.00;;;;;;;;;;4932231;29;20395;-75
2023/01/20 02:35:37;;;;;;;12.13;6.97;;;;;;;;;;4934838;29;20115;-75
2023/01/20 02:38:28;;;;;;;11.63;6.65;;;;;;;;;;4934905;29;20415;-75
2023/01/20 02:41:09;;;;;;;13.52;7.15;;;;;;;;;;4934886;29;20073;-75
2023/01/20 02:43:44;;;;;;;11.57;6.75;;;;;;;;;;4935437;29;20047;-75
2023/01/20 02:46:17;;;;;;;14.68;6.85;;;;;;;;;;4918163;29;20104;-75
2023/01/20 02:48:50;;;;;;;9.63;6.30;;;;;;;;;;4934033;29;20146;-75
2023/01/20 02:51:19;;;;;;;9.00;6.38;;;;;;;;;;4903421;29;20139;-75
2023/01/20 02:53:51;;;;;;;10.00;5.97;;;;;;;;;;4934805;29;20051;-75
2023/01/20 02:56:18;;;;;;;11.20;6.80;;;;;;;;;;4926719;29;20048;-75
2023/01/20 02:58:55;;;;;;;10.25;5.65;;;;;;;;;;4966310;28;20046;-75
2023/01/20 03:01:26;;;;;;;8.90;5.72;;;;;;;;;;5016941;28;20048;-75
2023/01/20 03:03:53;;;;;;;11.10;5.90;;;;;;;;;;5014296;28;20472;-75
2023/01/20 03:06:22;;;;;;;9.32;5.78;;;;;;;;;;5014296;28;20496;-75
2023/01/20 03:08:50;;;;;;;9.90;5.78;;;;;;;;;;5013883;28;20382;-75
2023/01/20 03:11:16;;;;;;;9.07;5.80;;;;;;;;;;5018426;28;20049;-75
2023/01/20 03:13:46;;;;;;;8.13;5.70;;;;;;;;;;5014434;28;20081;-75
2023/01/20 03:16:15;;;;;;;11.32;6.47;;;;;;;;;;5016294;28;20033;-75
2023/01/20 03:18:41;;;;;;;10.85;6.47;;;;;;;;;;5017904;28;20084;-75
2023/01/20 03:21:08;;;;;;;8.90;5.72;;;;;;;;;;5008455;28;20049;-75
2023/01/20 03:23:35;;;;;;;10.15;6.00;;;;;;;;;;5015751;28;20046;-75
2023/01/20 03:26:17;;;;;;;10.48;5.95;;;;;;;;;;5021803;28;20116;-75
2023/01/20 03:28:44;;;;;;;11.05;6.10;;;;;;;;;;5024914;28;20084;-75
2023/01/20 03:31:16;;;;;;;9.85;5.78;;;;;;;;;;5018112;28;20042;-75
2023/01/20 03:33:42;;;;;;;12.13;6.22;;;;;;;;;;5028921;28;20061;-75
2023/01/20 03:36:09;;;;;;;12.68;6.63;;;;;;;;;;5020487;28;20037;-75
2023/01/20 03:38:35;;;;;;;11.45;6.20;;;;;;;;;;5022892;28;20100;-75
2023/01/20 03:41:05;;;;;;;12.60;6.45;;;;;;;;;;5030280;28;20060;-75
2023/01/20 03:43:45;;;;;;;10.88;6.78;;;;;;;;;;5033554;28;20042;-75
2023/01/20 03:46:18;;;;;;;10.73;6.72;;;;;;;;;;5030424;28;20037;-75
2023/01/20 03:48:47;;;;;;;11.15;6.90;;;;;;;;;;5014298;28;20038;-75
2023/01/20 03:51:30;;;;;;;11.93;6.70;;;;;;;;;;5020887;28;20037;-75
2023/01/20 03:54:01;;;;;;;10.98;6.50;;;;;;;;;;5023852;28;20041;-75
2023/01/20 03:56:34;;;;;;;11.38;7.47;;;;;;;;;;5018629;28;20120;-75
2023/01/20 03:59:02;;;;;;;11.23;6.65;;;;;;;;;;5017375;28;20394;-75
2023/01/20 04:01:36;;;;;;;12.27;7.40;;;;;;;;;;5021006;28;20105;-75
2023/01/20 04:04:03;;;;;;;12.77;8.40;;;;;;;;;;5016334;28;20052;-75
2023/01/20 04:06:30;;;;;;;12.98;8.10;;;;;;;;;;5026683;28;20047;-75
2023/01/20 04:08:59;;;;;;;15.13;8.32;;;;;;;;;;5015842;28;20044;-75
2023/01/20 04:11:26;;;;;;;15.15;8.45;;;;;;;;;;5013676;28;20180;-74
2023/01/20 04:13:52;;;;;;;14.93;8.77;;;;;;;;;;5017200;28;20056;-75
2023/01/20 04:16:19;;;;;;;14.80;8.80;;;;;;;;;;5014216;28;20045;-75
2023/01/20 04:18:47;;;;;;;16.55;9.48;;;;;;;;;;5021835;28;20124;-75
2023/01/20 04:21:22;;;;;;;18.23;10.02;;;;;;;;;;5013096;28;20054;-75
2023/01/20 04:23:52;;;;;;;20.42;11.18;;;;;;;;;;5019238;28;20069;-75
2023/01/20 04:26:18;;;;;;;18.92;11.02;;;;;;;;;;5017471;28;20139;-75
2023/01/20 04:28:44;;;;;;;18.13;11.13;;;;;;;;;;5013754;28;20369;-74
2023/01/20 04:31:10;;;;;;;21.27;11.35;;;;;;;;;;5016847;28;20045;-75
2023/01/20 04:33:37;;;;;;;21.52;12.93;;;;;;;;;;5013623;28;20122;-75
2023/01/20 04:36:03;;;;;;;24.77;14.07;;;;;;;;;;5013256;28;20052;-74
2023/01/20 04:38:29;;;;;;;22.27;12.95;;;;;;;;;;5019947;28;20084;-74
2023/01/20 04:40:55;;;;;;;24.02;13.68;;;;;;;;;;5031590;28;20041;-75
2023/01/20 04:43:21;;;;;;;24.83;13.27;;;;;;;;;;5017070;28;20053;-74
2023/01/20 04:45:47;;;;;;;25.02;13.15;;;;;;;;;;5019004;28;20541;-75
2023/01/20 04:48:13;;;;;;;27.42;14.05;;;;;;;;;;5027584;28;20042;-75
2023/01/20 04:50:40;;;;;;;26.73;13.80;;;;;;;;;;5028364;28;20088;-75
2023/01/20 04:53:06;;;;;;;27.85;14.60;;;;;;;;;;5026274;28;20388;-74
2023/01/20 04:55:33;;;;;;;25.85;14.48;;;;;;;;;;5017940;28;20445;-75
2023/01/20 04:57:59;;;;;;;31.35;15.75;;;;;;;;;;5017182;28;20458;-75
2023/01/20 05:00:25;;;;;;;26.70;14.68;;;;;;;;;;5018895;28;20499;-75
2023/01/20 05:02:51;;;;;;;27.38;14.23;;;;;;;;;;5018649;28;20391;-75
2023/01/20 05:05:17;;;;;;;26.80;15.10;;;;;;;;;;5022886;28;20038;-75
2023/01/20 05:07:43;;;;;;;30.17;15.70;;;;;;;;;;5016248;28;20049;-75
2023/01/20 05:10:09;;;;;;;30.15;16.38;;;;;;;;;;5027153;28;20052;-75
2023/01/20 05:12:35;;;;;;;28.33;15.73;;;;;;;;;;5034477;28;20049;-75
2023/01/20 05:15:01;;;;;;;29.67;15.32;;;;;;;;;;5032172;28;20049;-75
2023/01/20 05:17:27;;;;;;;30.55;15.65;;;;;;;;;;5019690;28;20045;-75
2023/01/20 05:19:53;;;;;;;30.83;15.70;;;;;;;;;;5029487;28;20053;-75
2023/01/20 05:22:19;;;;;;;29.63;15.77;;;;;;;;;;5032193;28;20159;-75
2023/01/20 05:24:45;;;;;;;32.85;16.13;;;;;;;;;;5016406;28;20381;-75
2023/01/20 05:27:11;;;;;;;27.95;15.50;;;;;;;;;;5029880;28;20476;-75
2023/01/20 05:29:37;;;;;;;31.70;16.15;;;;;;;;;;5036261;28;20049;-75
2023/01/20 05:32:04;;;;;;;34.83;18.13;;;;;;;;;;5020037;28;20448;-75
2023/01/20 05:34:30;;;;;;;30.65;16.67;;;;;;;;;;5032742;28;20045;-75
2023/01/20 05:36:56;;;;;;;37.05;16.23;;;;;;;;;;5033905;28;20059;-75
2023/01/20 05:39:22;;;;;;;37.60;16.08;;;;;;;;;;5019705;28;20132;-75
2023/01/20 05:41:48;;;;;;;43.58;18.42;;;;;;;;;;5033887;28;20049;-75
2023/01/20 05:44:15;;;;;;;48.88;18.58;;;;;;;;;;5034616;28;20146;-74
2023/01/20 05:46:41;;;;;;;45.58;18.17;;;;;;;;;;5014302;28;20057;-75
2023/01/20 05:49:07;;;;;;;74.35;20.05;;;;;;;;;;5015510;28;20044;-75
2023/01/20 05:51:33;;;;;;;100.88;23.02;;;;;;;;;;5015816;28;20042;-75
2023/01/20 05:53:59;;;;;;;70.88;20.00;;;;;;;;;;5034347;28;20045;-74
2023/01/20 05:56:25;;;;;;;62.22;18.38;;;;;;;;;;5019448;28;20385;-75
2023/01/20 05:58:54;;;;;;;72.57;21.15;;;;;;;;;;5017886;28;20038;-75
2023/01/20 06:01:21;;;;;;;107.50;23.38;;;;;;;;;;5021763;28;20099;-75
2023/01/20 06:03:47;;;;;;;85.90;21.33;;;;;;;;;;5020316;28;20542;-75
2023/01/20 06:06:14;;;;;;;92.18;20.50;;;;;;;;;;5021633;28;20045;-75
2023/01/20 06:08:40;;;;;;;81.28;20.38;;;;;;;;;;5019485;28;20042;-75
2023/01/20 06:11:06;;;;;;;88.40;19.73;;;;;;;;;;5000976;28;20064;-75
2023/01/20 06:13:34;;;;;;;87.95;20.58;;;;;;;;;;5015642;28;20061;-75
2023/01/20 06:16:00;;;;;;;132.05;27.10;;;;;;;;;;5022611;28;20046;-75
2023/01/20 06:18:27;;;;;;;140.07;22.90;;;;;;;;;;5019268;28;20499;-75
2023/01/20 06:20:57;;;;;;;83.30;19.52;;;;;;;;;;5019998;28;20059;-75
2023/01/20 06:23:23;;;;;;;114.90;23.65;;;;;;;;;;5022248;28;20042;-75
2023/01/20 06:25:57;;;;;;;80.35;21.40;;;;;;;;;;5020744;28;20038;-75
2023/01/20 06:28:23;;;;;;;78.72;20.65;;;;;;;;;;5027584;28;20499;-75
2023/01/20 06:30:49;;;;;;;75.65;21.85;;;;;;;;;;5030259;28;20037;-75
2023/01/20 06:33:15;;;;;;;72.50;22.45;;;;;;;;;;5019686;28;20042;-75
2023/01/20 06:35:41;;;;;;;88.22;22.08;;;;;;;;;;5021862;28;20053;-75
2023/01/20 06:38:07;;;;;;;78.75;22.10;;;;;;;;;;5026534;28;20041;-75
2023/01/20 06:40:33;;;;;;;69.40;23.23;;;;;;;;;;5030043;28;20100;-75
2023/01/20 06:42:59;;;;;;;89.65;29.70;;;;;;;;;;5018887;28;20034;-75
2023/01/20 06:45:26;;;;;;;66.78;24.33;;;;;;;;;;5014985;28;20076;-75
2023/01/20 06:47:52;;;;;;;65.90;22.25;;;;;;;;;;5024399;28;20492;-75
2023/01/20 06:50:18;;;;;;;55.35;23.02;;;;;;;;;;5024882;28;20037;-75
2023/01/20 06:52:44;;;;;;;55.50;21.25;;;;;;;;;;5025873;28;20046;-75
2023/01/20 06:55:10;;;;;;;73.57;25.33;;;;;;;;;;5022133;28;20041;-75
2023/01/20 06:57:36;;;;;;;66.93;25.15;;;;;;;;;;5024798;28;20042;-75
2023/01/20 07:00:02;;;;;;;62.45;24.05;;;;;;;;;;5018447;28;20042;-75
2023/01/20 07:02:30;;;;;;;61.28;24.15;;;;;;;;;;5024029;28;20115;-75
2023/01/20 07:04:56;;;;;;;60.35;22.95;;;;;;;;;;5031721;28;20103;-75
2023/01/20 07:07:22;;;;;;;60.70;24.08;;;;;;;;;;5022952;28;20483;-75
2023/01/20 07:09:50;;;;;;;58.08;21.98;;;;;;;;;;5024749;28;20049;-75
2023/01/20 07:12:16;;;;;;;60.35;23.42;;;;;;;;;;5016698;28;20100;-75
2023/01/20 07:14:42;;;;;;;56.03;20.98;;;;;;;;;;5015958;28;20046;-76
2023/01/20 07:17:11;;;;;;;60.45;22.90;;;;;;;;;;5033272;28;20436;-77
2023/01/20 07:19:37;;;;;;;55.25;21.95;;;;;;;;;;5019178;28;20112;-75
2023/01/20 07:22:03;;;;;;;66.90;23.85;;;;;;;;;;5027403;28;20049;-75
2023/01/20 07:24:29;;;;;;;70.53;24.45;;;;;;;;;;5029678;28;20052;-75
2023/01/20 07:26:55;;;;;;;65.07;24.67;;;;;;;;;;5017280;28;20365;-75
2023/01/20 07:29:21;;;;;;;71.40;23.63;;;;;;;;;;5014120;28;20054;-75
2023/01/20 07:31:47;;;;;;;74.90;27.98;;;;;;;;;;5013979;28;20362;-75
2023/01/20 07:34:13;;;;;;;80.00;27.75;;;;;;;;;;5014617;28;20433;-75
2023/01/20 07:36:39;;;;;;;80.97;26.85;;;;;;;;;;5017397;28;20127;-75
2023/01/20 07:39:05;;;;;;;75.43;26.88;;;;;;;;;;5021185;28;20189;-75
2023/01/20 07:41:31;;;;;;;72.97;25.48;;;;;;;;;;5013878;28;20469;-75
2023/01/20 07:43:57;;;;;;;87.47;28.15;;;;;;;;;;5013898;28;20074;-75
2023/01/20 07:46:23;;;;;;;78.65;27.20;;;;;;;;;;5013958;28;20065;-76
2023/01/20 07:48:49;;;;;;;75.18;26.38;;;;;;;;;;5005394;28;20045;-75
2023/01/20 07:51:16;;;;;;;77.45;26.23;;;;;;;;;;5031921;28;20119;-75
2023/01/20 07:53:46;;;;;;;83.85;27.40;;;;;;;;;;5027663;28;20054;-74
2023/01/20 07:56:14;;;;;;;86.20;27.85;;;;;;;;;;5020218;28;20041;-76
2023/01/20 07:58:40;;;;;;;74.60;27.08;;;;;;;;;;5018727;28;20050;-75
2023/01/20 08:01:08;;;;;;;84.07;27.05;;;;;;;;;;5018472;28;20050;-75
2023/01/20 08:03:34;;;;;;;83.93;25.67;;;;;;;;;;5013917;28;20050;-75
2023/01/20 08:06:07;;;;;;;67.35;23.42;;;;;;;;;;5014465;28;20092;-75
2023/01/20 08:08:33;;;;;;;74.93;26.90;;;;;;;;;;5025722;28;20496;-75
2023/01/20 08:11:00;;;;;;;76.00;27.17;;;;;;;;;;5013306;28;20065;-75
2023/01/20 08:13:26;;;;;;;82.88;29.02;;;;;;;;;;5012252;28;20042;-75
2023/01/20 08:15:52;;;;;;;79.70;28.58;;;;;;;;;;5022104;28;20103;-75
2023/01/20 08:18:18;;;;;;;72.82;25.38;;;;;;;;;;5032589;28;20125;-75
2023/01/20 08:20:44;;;;;;;71.90;25.27;;;;;;;;;;5025486;28;20045;-75
2023/01/20 08:23:10;;;;;;;66.80;24.60;;;;;;;;;;5028177;28;20034;-75
2023/01/20 08:25:36;;;;;;;78.38;25.60;;;;;;;;;;5035689;28;20566;-74
2023/01/20 08:28:03;;;;;;;69.95;24.02;;;;;;;;;;5036522;28;20135;-75
2023/01/20 08:30:29;;;;;;;74.53;24.50;;;;;;;;;;5017658;28;20128;-75
2023/01/20 08:32:55;;;;;;;69.30;24.58;;;;;;;;;;5016034;28;20082;-75
2023/01/20 08:35:21;;;;;;;69.55;23.63;;;;;;;;;;5021521;28;20509;-74
2023/01/20 08:37:47;;;;;;;63.30;22.83;;;;;;;;;;5036213;28;20111;-75
2023/01/20 08:40:13;;;;;;;73.43;24.27;;;;;;;;;;5016903;28;20492;-75
2023/01/20 08:42:39;;;;;;;68.20;24.52;;;;;;;;;;5036720;28;20081;-75
2023/01/20 08:45:06;;;;;;;72.63;25.27;;;;;;;;;;5036950;28;20037;-75
2023/01/20 08:47:35;;;;;;;62.78;23.27;;;;;;;;;;5017519;28;20526;-75
2023/01/20 08:50:01;;;;;;;70.65;23.58;;;;;;;;;;5021459;28;20044;-75
2023/01/20 08:52:27;;;;;;;62.83;21.95;;;;;;;;;;5021784;28;20056;-75
2023/01/20 08:54:53;;;;;;;69.32;23.98;;;;;;;;;;5027345;28;20053;-75
2023/01/20 08:57:19;;;;;;;68.70;24.88;;;;;;;;;;5029055;28;20084;-75
2023/01/20 08:59:46;;;;;;;61.75;23.80;;;;;;;;;;5036788;28;20049;-75
2023/01/20 09:02:12;;;;;;;64.93;22.77;;;;;;;;;;5018711;28;20042;-75
2023/01/20 09:04:38;;;;;;;57.58;23.33;;;;;;;;;;5020120;28;20053;-75
2023/01/20 09:07:04;;;;;;;60.42;23.92;;;;;;;;;;5017236;28;20046;-75
2023/01/20 09:09:31;;;;;;;62.85;23.95;;;;;;;;;;5027656;28;20123;-74
2023/01/20 09:11:57;;;;;;;55.30;23.08;;;;;;;;;;5022849;28;20042;-75
2023/01/20 09:14:24;;;;;;;59.80;21.98;;;;;;;;;;5016279;28;20045;-75
2023/01/20 09:16:50;;;;;;;61.63;22.20;;;;;;;;;;5016235;28;20076;-74
2023/01/20 09:19:17;;;;;;;62.22;23.15;;;;;;;;;;5026391;28;20428;-74
2023/01/20 09:21:43;;;;;;;57.28;23.27;;;;;;;;;;5035866;28;20115;-74
2023/01/20 09:24:09;;;;;;;54.80;20.98;;;;;;;;;;5035286;28;20130;-74
2023/01/20 09:26:39;;;;;;;58.60;22.77;;;;;;;;;;5029871;28;20487;-74
2023/01/20 09:29:09;;;;;;;59.72;23.85;;;;;;;;;;5021792;28;20041;-74
2023/01/20 09:31:45;;;;;;;65.75;22.80;;;;;;;;;;5016257;28;20041;-74
2023/01/20 09:34:20;;;;;;;64.53;22.88;;;;;;;;;;5028501;28;20041;-74
2023/01/20 09:45:41;;;;;;;56.83;22.33;;;;;;;;;;5016268;28;20500;-73
2023/01/20 09:53:58;;;;;;;61.25;24.15;;;;;;;;;;5032965;28;20464;-73
2023/01/20 09:56:25;;;;;;;63.95;24.10;;;;;;;;;;5019809;28;20476;-73
2023/01/20 09:59:01;;;;;;;67.90;23.42;;;;;;;;;;5021312;28;20452;-73
2023/01/20 10:01:40;;;;;;;57.13;24.50;;;;;;;;;;5025368;28;20046;-73
2023/01/20 10:04:09;;;;;;;58.03;24.27;;;;;;;;;;5027210;28;20476;-73
2023/01/20 10:06:41;;;;;;;65.28;23.50;;;;;;;;;;5022595;28;20053;-73
2023/01/20 10:09:10;;;;;;;60.13;24.63;;;;;;;;;;5021815;28;20034;-73
2023/01/20 10:11:38;;;;;;;58.70;24.02;;;;;;;;;;5017937;28;20041;-73
2023/01/20 10:14:11;;;;;;;64.45;24.20;;;;;;;;;;5035220;28;20045;-73
2023/01/20 10:16:39;;;;;;;62.08;24.73;;;;;;;;;;5029914;28;20176;-73
2023/01/20 10:19:11;;;;;;;56.97;22.83;;;;;;;;;;5014908;28;20050;-73
2023/01/20 10:21:41;;;;;;;54.65;21.42;;;;;;;;;;5015167;28;20046;-73
2023/01/20 10:24:09;;;;;;;55.00;21.90;;;;;;;;;;5014982;28;20121;-73
2023/01/20 10:26:57;;;;;;;60.33;22.30;;;;;;;;;;5014880;28;20045;-73
2023/01/20 10:29:29;;;;;;;57.45;21.65;;;;;;;;;;5015341;28;20480;-73
2023/01/20 10:32:02;;;;;;;55.15;21.65;;;;;;;;;;5014980;28;20045;-73
2023/01/20 10:34:48;;;;;;;56.25;20.13;;;;;;;;;;5022877;28;20038;-73
2023/01/20 10:37:14;;;;;;;53.00;20.45;;;;;;;;;;5013927;28;20053;-73
2023/01/20 10:39:40;;;;;;;52.35;20.42;;;;;;;;;;5014689;28;20042;-73
2023/01/20 10:42:13;;;;;;;49.15;20.25;;;;;;;;;;5014426;28;20146;-73
2023/01/20 10:44:39;;;;;;;47.53;19.98;;;;;;;;;;5014638;28;20124;-73
2023/01/20 10:47:15;;;;;;;45.22;17.45;;;;;;;;;;5014972;28;20042;-73
2023/01/20 10:49:41;;;;;;;43.35;16.75;;;;;;;;;;5014711;28;20124;-73
2023/01/20 10:52:16;;;;;;;47.15;18.77;;;;;;;;;;5016224;28;20631;-73
2023/01/20 10:55:01;;;;;;;44.65;20.50;;;;;;;;;;5016125;28;20551;-73
2023/01/20 10:57:27;;;;;;;45.67;18.55;;;;;;;;;;5033753;28;20129;-73
2023/01/20 10:59:55;;;;;;;49.97;20.23;;;;;;;;;;5029692;28;20492;-73
2023/01/20 11:02:25;;;;;;;43.83;18.48;;;;;;;;;;5014225;28;20045;-74
2023/01/20 11:04:57;;;;;;;50.55;20.40;;;;;;;;;;5014745;28;20038;-74
2023/01/20 11:07:24;;;;;;;47.50;19.52;;;;;;;;;;5030209;28;20396;-74
2023/01/20 11:09:50;;;;;;;45.40;18.13;;;;;;;;;;5028890;28;20105;-74
2023/01/20 11:12:18;;;;;;;46.28;18.00;;;;;;;;;;5013966;28;20472;-74
2023/01/20 11:14:45;;;;;;;45.25;16.92;;;;;;;;;;5014389;28;20053;-74
2023/01/20 11:17:16;;;;;;;38.85;16.30;;;;;;;;;;5012627;28;20052;-74
2023/01/20 11:19:49;;;;;;;39.05;17.27;;;;;;;;;;5014483;28;20235;-74
2023/01/20 11:22:21;;;;;;;43.53;18.60;;;;;;;;;;5029962;28;20048;-74
2023/01/20 11:24:47;;;;;;;43.67;18.05;;;;;;;;;;5026695;28;20037;-74
2023/01/20 11:27:18;;;;;;;45.33;18.70;;;;;;;;;;5029592;28;20464;-74
2023/01/20 11:30:05;;;;;;;46.72;19.40;;;;;;;;;;5033843;28;20048;-74
2023/01/20 11:32:31;;;;;;;47.05;18.08;;;;;;;;;;5014285;28;20500;-74
2023/01/20 11:34:57;;;;;;;48.17;17.55;;;;;;;;;;5013862;28;20046;-74
2023/01/20 11:37:25;;;;;;;45.47;19.08;;;;;;;;;;5014166;28;20514;-74
2023/01/20 11:39:51;;;;;;;45.75;18.52;;;;;;;;;;5027991;28;20038;-73
2023/01/20 11:42:21;;;;;;;47.05;18.65;;;;;;;;;;5013306;28;20068;-74
2023/01/20 11:44:48;;;;;;;45.42;18.85;;;;;;;;;;5013619;28;20117;-74
2023/01/20 11:47:26;;;;;;;43.63;18.95;;;;;;;;;;5029576;28;20480;-74
2023/01/20 11:50:04;;;;;;;47.85;19.35;;;;;;;;;;5025020;28;20064;-74
2023/01/20 11:52:38;;;;;;;45.30;19.65;;;;;;;;;;5015466;28;20046;-74
2023/01/20 11:55:07;;;;;;;47.60;19.35;;;;;;;;;;5038046;28;20053;-74
2023/01/20 11:57:33;;;;;;;41.03;18.50;;;;;;;;;;5014086;28;20042;-74
2023/01/20 11:59:59;;;;;;;44.42;19.92;;;;;;;;;;4995816;28;20050;-74
2023/01/20 12:02:27;;;;;;;45.88;20.50;;;;;;;;;;5022578;28;20041;-74
2023/01/20 12:04:59;;;;;;;41.92;18.52;;;;;;;;;;5023432;28;20058;-74
2023/01/20 12:07:28;;;;;;;49.03;20.00;;;;;;;;;;5013648;28;20073;-74
2023/01/20 12:10:04;;;;;;;46.25;20.70;;;;;;;;;;5012518;28;20049;-74
2023/01/20 12:12:43;;;;;;;44.70;20.10;;;;;;;;;;5013436;28;20046;-74
2023/01/20 12:15:15;;;;;;;40.08;18.45;;;;;;;;;;5011814;28;20046;-74
2023/01/20 12:17:45;;;;;;;43.63;18.70;;;;;;;;;;5033424;28;20049;-74
2023/01/20 12:20:15;;;;;;;44.40;19.90;;;;;;;;;;5032291;28;20083;-74
2023/01/20 12:22:42;;;;;;;42.00;18.17;;;;;;;;;;5013286;28;20497;-74
2023/01/20 12:25:28;;;;;;;34.17;17.05;;;;;;;;;;5013670;28;20088;-74
2023/01/20 12:27:56;;;;;;;39.60;17.10;;;;;;;;;;5013870;28;20073;-74
2023/01/20 12:30:22;;;;;;;37.85;17.13;;;;;;;;;;5023441;28;20076;-74
2023/01/20 12:32:49;;;;;;;36.83;16.40;;;;;;;;;;5032632;28;20037;-74
2023/01/20 12:35:15;;;;;;;35.20;16.27;;;;;;;;;;5032849;28;20125;-74
2023/01/20 12:37:41;;;;;;;36.38;17.08;;;;;;;;;;5031752;28;20042;-74
2023/01/20 12:40:26;;;;;;;33.30;14.93;;;;;;;;;;5031303;28;20379;-74
2023/01/20 12:43:11;;;;;;;35.15;14.80;;;;;;;;;;5032992;28;20041;-74
2023/01/20 12:45:55;;;;;;;37.38;16.45;;;;;;;;;;5021458;28;20052;-74
2023/01/20 12:48:29;;;;;;;34.47;15.93;;;;;;;;;;5034025;28;20065;-74
2023/01/20 12:51:02;;;;;;;36.58;15.95;;;;;;;;;;5026403;28;20053;-79
2023/01/20 12:53:39;;;;;;;33.38;14.63;;;;;;;;;;5017983;28;20520;-73
2023/01/20 12:56:08;;;;;;;36.47;16.05;;;;;;;;;;5019962;28;20037;-74
2023/01/20 12:58:55;;;;;;;40.63;16.65;;;;;;;;;;5021958;28;20546;-74
2023/01/20 13:01:21;;;;;;;31.02;15.00;;;;;;;;;;5027007;28;20042;-74
2023/01/20 13:04:06;;;;;;;32.90;15.43;;;;;;;;;;5055045;28;20041;-74
2023/01/20 13:06:50;;;;;;;38.90;16.95;;;;;;;;;;5040099;28;20034;-74
2023/01/20 13:09:19;;;;;;;31.10;15.73;;;;;;;;;;5021241;28;20560;-74
2023/01/20 13:12:04;;;;;;;37.35;16.30;;;;;;;;;;5024038;28;20037;-74
2023/01/20 13:14:47;;;;;;;38.75;16.52;;;;;;;;;;5020318;28;20084;-74
2023/01/20 13:17:13;;;;;;;42.15;17.77;;;;;;;;;;5024225;28;20049;-74
2023/01/20 13:19:40;;;;;;;34.03;16.77;;;;;;;;;;5025053;28;20435;-74
2023/01/20 13:22:14;;;;;;;39.30;17.05;;;;;;;;;;5024440;28;20132;-75
2023/01/20 13:24:43;;;;;;;39.03;18.42;;;;;;;;;;5019191;28;20073;-74
2023/01/20 13:27:10;;;;;;;39.67;18.52;;;;;;;;;;5015999;28;20511;-74
2023/01/20 13:29:36;;;;;;;38.00;17.45;;;;;;;;;;5019099;28;20098;-75
2023/01/20 13:32:02;;;;;;;38.10;17.75;;;;;;;;;;5024643;28;20042;-75
2023/01/20 13:34:29;;;;;;;34.20;16.38;;;;;;;;;;5031240;28;20865;-75
2023/01/20 13:37:02;;;;;;;41.33;17.33;;;;;;;;;;5018827;28;20182;-74
2023/01/20 13:39:38;;;;;;;30.55;13.50;;;;;;;;;;5025549;28;20057;-74
2023/01/20 13:42:24;;;;;;;34.95;15.27;;;;;;;;;;5031975;28;20045;-75
2023/01/20 13:45:09;;;;;;;36.75;17.33;;;;;;;;;;5035859;28;20428;-74
2023/01/20 13:47:58;;;;;;;35.42;16.15;;;;;;;;;;5044156;28;20055;-74
2023/01/20 13:50:26;;;;;;;37.55;16.70;;;;;;;;;;5055794;28;20123;-74
2023/01/20 13:52:52;;;;;;;38.83;18.27;;;;;;;;;;5050142;28;20067;-74
2023/01/20 13:55:28;;;;;;;34.97;14.05;;;;;;;;;;5044786;28;20042;-75
2023/01/20 13:57:54;;;;;;;33.92;15.23;;;;;;;;;;5036279;28;20041;-74
2023/01/20 14:00:20;;;;;;;34.50;14.63;;;;;;;;;;5021330;28;20087;-74
2023/01/20 14:02:47;;;;;;;31.05;14.88;;;;;;;;;;5024973;28;20034;-74
2023/01/20 14:05:27;;;;;;;36.45;16.58;;;;;;;;;;5016894;28;20455;-74
2023/01/20 14:07:53;;;;;;;36.60;16.45;;;;;;;;;;5024737;28;20046;-74
2023/01/20 14:10:19;;;;;;;32.63;15.55;;;;;;;;;;5019962;28;20050;-74
2023/01/20 14:12:45;;;;;;;34.85;16.33;;;;;;;;;;5025455;28;20049;-74
2023/01/20 14:15:44;;;;;;;39.50;17.95;;;;;;;;;;5020544;28;20041;-74
2023/01/20 14:18:14;;;;;;;37.40;17.08;;;;;;;;;;4997398;28;20046;-74
2023/01/20 14:20:40;;;;;;;35.75;16.75;;;;;;;;;;5025834;28;20091;-74
2023/01/20 14:23:41;;;;;;;36.97;16.25;;;;;;;;;;5020704;28;20074;-74
2023/01/20 14:26:09;;;;;;;39.35;17.65;;;;;;;;;;5010920;28;20084;-74
2023/01/20 14:28:40;;;;;;;36.42;16.58;;;;;;;;;;5018219;28;20233;-74
2023/01/20 14:31:06;;;;;;;39.38;17.52;;;;;;;;;;5012676;28;20049;-74
2023/01/20 14:33:32;;;;;;;37.58;16.83;;;;;;;;;;5005680;28;20054;-74
2023/01/20 14:35:58;;;;;;;34.28;16.92;;;;;;;;;;5012688;28;20038;-74
2023/01/20 14:38:24;;;;;;;33.22;15.40;;;;;;;;;;5012746;28;20057;-74
2023/01/20 14:40:50;;;;;;;36.33;15.23;;;;;;;;;;5012743;28;20397;-74
2023/01/20 14:43:18;;;;;;;30.15;14.35;;;;;;;;;;5012534;28;20042;-74
2023/01/20 14:45:45;;;;;;;29.63;15.63;;;;;;;;;;5011646;28;20053;-75